createdAt,value
2018-06-11T00:00:16.720Z,1008.36
2018-06-11T00:01:17.774Z,1008.38
2018-06-11T00:02:16.689Z,1008.37
2018-06-11T00:03:16.677Z,1008.39
2018-06-11T00:04:16.625Z,1008.40
2018-06-11T00:05:16.690Z,1008.40
2018-06-11T00:06:16.577Z,1008.37
2018-06-11T00:07:16.613Z,1008.36
2018-06-11T00:08:16.526Z,1008.34
2018-06-11T00:09:16.621Z,1008.31
2018-06-11T00:10:16.477Z,1008.35
2018-06-11T00:11:16.522Z,1008.33
2018-06-11T00:12:16.445Z,1008.38
2018-06-11T00:13:16.530Z,1008.36
2018-06-11T00:15:02.049Z,1008.37
2018-06-11T00:16:01.936Z,1008.33
2018-06-11T00:17:01.919Z,1008.30
2018-06-11T00:18:01.918Z,1008.32
2018-06-11T00:19:01.873Z,1008.29
2018-06-11T00:20:01.955Z,1008.30
2018-06-11T00:21:01.825Z,1008.31
2018-06-11T00:22:01.843Z,1008.29
2018-06-11T00:23:01.877Z,1008.31
2018-06-11T00:24:01.867Z,1008.33
2018-06-11T00:25:01.745Z,1008.30
2018-06-11T00:26:01.776Z,1008.34
2018-06-11T00:27:01.696Z,1008.40
2018-06-11T00:28:01.786Z,1008.39
2018-06-11T00:29:01.645Z,1008.37
2018-06-11T00:30:01.705Z,1008.38
2018-06-11T00:31:01.605Z,1008.38
2018-06-11T00:32:01.707Z,1008.35
2018-06-11T00:33:01.567Z,1008.35
2018-06-11T00:34:01.637Z,1008.34
2018-06-11T00:35:01.518Z,1008.36
2018-06-11T00:36:01.639Z,1008.39
2018-06-11T00:37:01.481Z,1008.37
2018-06-11T00:38:01.550Z,1008.37
2018-06-11T00:39:01.425Z,1008.38
2018-06-11T00:40:01.570Z,1008.33
2018-06-11T00:41:01.382Z,1008.35
2018-06-11T00:42:01.482Z,1008.31
2018-06-11T00:43:47.096Z,1008.36
2018-06-11T00:44:46.884Z,1008.32
2018-06-11T00:45:46.855Z,1008.33
2018-06-11T00:46:46.978Z,1008.32
2018-06-11T00:47:46.811Z,1008.33
2018-06-11T00:48:46.897Z,1008.36
2018-06-11T00:49:46.773Z,1008.33
2018-06-11T00:50:46.906Z,1008.32
2018-06-11T00:51:46.717Z,1008.39
2018-06-11T00:52:46.816Z,1008.37
2018-06-11T00:53:46.672Z,1008.41
2018-06-11T00:54:46.826Z,1008.39
2018-06-11T00:55:46.634Z,1008.40
2018-06-11T00:56:46.720Z,1008.42
2018-06-11T00:57:46.590Z,1008.40
2018-06-11T00:58:46.633Z,1008.42
2018-06-11T00:59:46.537Z,1008.42
2018-06-11T01:00:46.648Z,1008.45
2018-06-11T01:01:46.498Z,1008.44
2018-06-11T01:02:46.556Z,1008.44
2018-06-11T01:03:46.460Z,1008.47
2018-06-11T01:04:46.571Z,1008.46
2018-06-11T01:05:46.413Z,1008.46
2018-06-11T01:06:46.476Z,1008.46
2018-06-11T01:07:46.381Z,1008.46
2018-06-11T01:08:46.504Z,1008.44
2018-06-11T01:09:46.316Z,1008.44
2018-06-11T01:10:46.406Z,1008.48
2018-06-11T01:11:46.278Z,1008.52
2018-06-11T01:12:46.325Z,1008.50
2018-06-11T01:13:46.252Z,1008.50
2018-06-11T01:14:46.341Z,1008.47
2018-06-11T01:15:46.179Z,1008.46
2018-06-11T01:16:46.254Z,1008.43
2018-06-11T01:17:46.139Z,1008.46
2018-06-11T01:18:31.882Z,1008.43
2018-06-11T01:19:31.676Z,1008.44
2018-06-11T01:20:31.743Z,1008.36
2018-06-11T01:21:31.625Z,1008.39
2018-06-11T01:22:31.747Z,1008.39
2018-06-11T01:23:31.566Z,1008.37
2018-06-11T01:24:31.657Z,1008.39
2018-06-11T01:25:31.529Z,1008.42
2018-06-11T01:26:31.666Z,1008.43
2018-06-11T01:27:31.490Z,1008.44
2018-06-11T01:28:31.584Z,1008.41
2018-06-11T01:29:31.435Z,1008.42
2018-06-11T01:30:31.491Z,1008.46
2018-06-11T01:31:31.394Z,1008.47
2018-06-11T01:32:31.507Z,1008.44
2018-06-11T01:33:31.352Z,1008.42
2018-06-11T01:34:31.421Z,1008.41
2018-06-11T01:35:31.297Z,1008.35
2018-06-11T01:36:31.432Z,1008.40
2018-06-11T01:37:31.250Z,1008.38
2018-06-11T01:38:31.353Z,1008.37
2018-06-11T01:39:31.206Z,1008.33
2018-06-11T01:40:31.363Z,1008.36
2018-06-11T01:41:31.166Z,1008.35
2018-06-11T01:43:16.827Z,1008.34
2018-06-11T01:44:16.956Z,1008.34
2018-06-11T01:45:16.761Z,1008.28
2018-06-11T01:46:16.860Z,1008.31
2018-06-11T01:47:16.709Z,1008.26
2018-06-11T01:48:16.871Z,1008.26
2018-06-11T01:49:16.669Z,1008.24
2018-06-11T01:50:16.792Z,1008.22
2018-06-11T01:51:16.621Z,1008.19
2018-06-11T01:52:16.701Z,1008.19
2018-06-11T01:53:16.573Z,1008.15
2018-06-11T01:54:16.705Z,1008.11
2018-06-11T01:55:16.533Z,1008.14
2018-06-11T01:56:16.615Z,1008.11
2018-06-11T01:57:16.488Z,1008.07
2018-06-11T01:58:16.632Z,1008.06
2018-06-11T01:59:16.441Z,1008.09
2018-06-11T02:00:16.553Z,1008.05
2018-06-11T02:01:16.386Z,1008.03
2018-06-11T02:02:16.459Z,1007.97
2018-06-11T02:03:16.353Z,1007.94
2018-06-11T02:04:16.477Z,1007.96
2018-06-11T02:05:16.313Z,1007.95
2018-06-11T02:06:16.376Z,1007.97
2018-06-11T02:07:16.264Z,1007.96
2018-06-11T02:08:16.412Z,1008.00
2018-06-11T02:10:02.163Z,1007.96
2018-06-11T02:11:02.085Z,1007.97
2018-06-11T02:12:02.046Z,1008.01
2018-06-11T02:13:02.164Z,1008.01
2018-06-11T02:14:02.001Z,1008.01
2018-06-11T02:15:02.088Z,1007.97
2018-06-11T02:16:01.967Z,1008.00
2018-06-11T02:17:02.074Z,1007.99
2018-06-11T02:18:01.917Z,1008.00
2018-06-11T02:19:01.988Z,1007.99
2018-06-11T02:20:01.862Z,1008.02
2018-06-11T02:21:01.913Z,1007.98
2018-06-11T02:22:01.813Z,1007.99
2018-06-11T02:23:01.931Z,1008.01
2018-06-11T02:24:01.772Z,1007.96
2018-06-11T02:25:01.832Z,1007.93
2018-06-11T02:26:01.729Z,1007.94
2018-06-11T02:27:01.861Z,1007.88
2018-06-11T02:28:01.678Z,1007.83
2018-06-11T02:29:01.748Z,1007.80
2018-06-11T02:30:01.640Z,1007.79
2018-06-11T02:31:01.759Z,1007.78
2018-06-11T02:32:01.586Z,1007.80
2018-06-11T02:33:01.681Z,1007.78
2018-06-11T02:34:01.536Z,1007.79
2018-06-11T02:35:01.594Z,1007.75
2018-06-11T02:36:01.490Z,1007.75
2018-06-11T02:37:01.626Z,1007.74
2018-06-11T02:38:01.448Z,1007.76
2018-06-11T02:39:01.527Z,1007.72
2018-06-11T02:40:01.409Z,1007.71
2018-06-11T02:41:01.522Z,1007.74
2018-06-11T02:42:01.375Z,1007.72
2018-06-11T02:43:01.434Z,1007.74
2018-06-11T02:44:01.319Z,1007.69
2018-06-11T02:45:03.399Z,1007.78
2018-06-11T02:46:01.271Z,1007.74
2018-06-11T02:47:01.356Z,1007.76
2018-06-11T02:48:01.214Z,1007.83
2018-06-11T02:49:01.294Z,1007.84
2018-06-11T02:50:01.180Z,1007.82
2018-06-11T02:51:01.306Z,1007.85
2018-06-11T02:52:01.131Z,1007.80
2018-06-11T02:53:01.196Z,1007.85
2018-06-11T02:54:01.091Z,1007.90
2018-06-11T02:55:01.209Z,1007.86
2018-06-11T02:56:01.045Z,1007.86
2018-06-11T02:57:01.118Z,1007.84
2018-06-11T02:58:00.997Z,1007.83
2018-06-11T02:59:01.233Z,1007.77
2018-06-11T03:00:00.964Z,1007.77
2018-06-11T03:01:01.042Z,1007.77
2018-06-11T03:02:00.896Z,1007.79
2018-06-11T03:03:00.956Z,1007.79
2018-06-11T03:04:00.861Z,1007.78
2018-06-11T03:05:00.972Z,1007.77
2018-06-11T03:06:00.814Z,1007.77
2018-06-11T03:07:00.893Z,1007.72
2018-06-11T03:08:00.764Z,1007.66
2018-06-11T03:09:00.897Z,1007.68
2018-06-11T03:10:00.744Z,1007.69
2018-06-11T03:11:00.805Z,1007.67
2018-06-11T03:12:00.688Z,1007.70
2018-06-11T03:13:00.820Z,1007.65
2018-06-11T03:14:00.632Z,1007.64
2018-06-11T03:15:00.732Z,1007.65
2018-06-11T03:16:00.603Z,1007.64
2018-06-11T03:17:00.658Z,1007.64
2018-06-11T03:18:00.534Z,1007.64
2018-06-11T03:19:00.652Z,1007.70
2018-06-11T03:20:00.516Z,1007.67
2018-06-11T03:21:00.576Z,1007.65
2018-06-11T03:22:00.455Z,1007.67
2018-06-11T03:23:00.578Z,1007.67
2018-06-11T03:24:00.402Z,1007.68
2018-06-11T03:25:00.499Z,1007.70
2018-06-11T03:26:00.363Z,1007.72
2018-06-11T03:27:00.513Z,1007.73
2018-06-11T03:28:00.313Z,1007.74
2018-06-11T03:29:00.423Z,1007.73
2018-06-11T03:30:00.264Z,1007.72
2018-06-11T03:31:00.339Z,1007.73
2018-06-11T03:32:00.224Z,1007.79
2018-06-11T03:33:00.337Z,1007.78
2018-06-11T03:34:00.172Z,1007.80
2018-06-11T03:35:00.259Z,1007.79
2018-06-11T03:36:00.148Z,1007.82
2018-06-11T03:37:00.270Z,1007.86
2018-06-11T03:38:00.081Z,1007.82
2018-06-11T03:39:02.230Z,1007.82
2018-06-11T03:40:00.041Z,1007.85
2018-06-11T03:41:00.193Z,1007.83
2018-06-11T03:41:59.993Z,1007.84
2018-06-11T03:43:00.116Z,1007.86
2018-06-11T03:43:59.946Z,1007.87
2018-06-11T03:45:00.029Z,1007.89
2018-06-11T03:45:59.909Z,1007.90
2018-06-11T03:47:00.038Z,1007.90
2018-06-11T03:47:59.863Z,1007.89
2018-06-11T03:48:59.968Z,1007.90
2018-06-11T03:49:59.808Z,1007.94
2018-06-11T03:50:59.961Z,1007.93
2018-06-11T03:51:59.777Z,1007.94
2018-06-11T03:52:59.869Z,1007.92
2018-06-11T03:53:59.713Z,1007.97
2018-06-11T03:54:59.779Z,1007.94
2018-06-11T03:55:59.673Z,1007.94
2018-06-11T03:56:59.813Z,1007.94
2018-06-11T03:57:59.646Z,1007.95
2018-06-11T03:58:59.706Z,1007.96
2018-06-11T03:59:59.575Z,1007.97
2018-06-11T04:00:59.733Z,1007.97
2018-06-11T04:01:59.531Z,1007.96
2018-06-11T04:02:59.631Z,1008.00
2018-06-11T04:03:59.503Z,1007.97
2018-06-11T04:04:59.642Z,1007.98
2018-06-11T04:05:59.441Z,1008.01
2018-06-11T04:06:59.553Z,1008.01
2018-06-11T04:07:59.393Z,1008.00
2018-06-11T04:08:59.467Z,1008.05
2018-06-11T04:09:59.341Z,1008.07
2018-06-11T04:10:59.543Z,1008.12
2018-06-11T04:11:59.306Z,1008.09
2018-06-11T04:12:59.409Z,1008.07
2018-06-11T04:13:59.256Z,1008.11
2018-06-11T04:14:59.414Z,1008.15
2018-06-11T04:15:59.205Z,1008.07
2018-06-11T04:16:59.321Z,1008.12
2018-06-11T04:17:59.158Z,1008.20
2018-06-11T04:18:59.333Z,1008.21
2018-06-11T04:19:59.123Z,1008.20
2018-06-11T04:20:59.242Z,1008.22
2018-06-11T04:21:59.083Z,1008.26
2018-06-11T04:22:59.157Z,1008.26
2018-06-11T04:23:59.027Z,1008.23
2018-06-11T04:24:59.165Z,1008.23
2018-06-11T04:25:58.984Z,1008.27
2018-06-11T04:26:59.078Z,1008.28
2018-06-11T04:27:58.939Z,1008.28
2018-06-11T04:28:59.092Z,1008.28
2018-06-11T04:29:58.889Z,1008.33
2018-06-11T04:30:59.022Z,1008.24
2018-06-11T04:31:58.851Z,1008.25
2018-06-11T04:32:59.029Z,1008.28
2018-06-11T04:33:58.799Z,1008.22
2018-06-11T04:34:58.940Z,1008.18
2018-06-11T04:35:58.754Z,1008.19
2018-06-11T04:36:58.859Z,1008.20
2018-06-11T04:37:58.707Z,1008.19
2018-06-11T04:38:58.958Z,1008.14
2018-06-11T04:39:58.657Z,1008.17
2018-06-11T04:40:58.767Z,1008.17
2018-06-11T04:41:58.613Z,1008.18
2018-06-11T04:42:58.788Z,1008.18
2018-06-11T04:43:58.575Z,1008.17
2018-06-11T04:44:58.687Z,1008.18
2018-06-11T04:45:58.530Z,1008.15
2018-06-11T04:46:58.709Z,1008.17
2018-06-11T04:47:58.477Z,1008.15
2018-06-11T04:48:58.635Z,1008.17
2018-06-11T04:49:58.441Z,1008.20
2018-06-11T04:50:58.532Z,1008.19
2018-06-11T04:51:58.394Z,1008.21
2018-06-11T04:52:58.546Z,1008.23
2018-06-11T04:53:58.352Z,1008.22
2018-06-11T04:54:58.454Z,1008.19
2018-06-11T04:55:58.302Z,1008.23
2018-06-11T04:56:58.470Z,1008.19
2018-06-11T04:57:58.268Z,1008.18
2018-06-11T04:58:58.394Z,1008.21
2018-06-11T04:59:58.226Z,1008.24
2018-06-11T05:00:58.398Z,1008.20
2018-06-11T05:01:58.179Z,1008.25
2018-06-11T05:02:58.300Z,1008.26
2018-06-11T05:03:58.127Z,1008.24
2018-06-11T05:04:58.313Z,1008.27
2018-06-11T05:05:58.078Z,1008.26
2018-06-11T05:06:58.226Z,1008.25
2018-06-11T05:07:58.038Z,1008.23
2018-06-11T05:08:58.131Z,1008.20
2018-06-11T05:09:57.989Z,1008.18
2018-06-11T05:10:58.153Z,1008.18
2018-06-11T05:11:57.945Z,1008.13
2018-06-11T05:12:58.168Z,1008.12
2018-06-11T05:13:57.901Z,1008.08
2018-06-11T05:14:58.075Z,1008.11
2018-06-11T05:15:57.859Z,1008.07
2018-06-11T05:16:57.987Z,1008.11
2018-06-11T05:17:57.805Z,1008.05
2018-06-11T05:18:58.003Z,1008.08
2018-06-11T05:19:57.760Z,1008.06
2018-06-11T05:20:57.909Z,1008.11
2018-06-11T05:21:57.710Z,1008.08
2018-06-11T05:22:57.828Z,1008.05
2018-06-11T05:23:57.671Z,1008.02
2018-06-11T05:24:57.840Z,1008.09
2018-06-11T05:25:57.631Z,1008.04
2018-06-11T05:26:57.646Z,1008.02
2018-06-11T05:27:57.574Z,1008.01
2018-06-11T05:28:57.662Z,1008.08
2018-06-11T05:29:57.571Z,1008.07
2018-06-11T05:30:57.568Z,1008.08
2018-06-11T05:31:57.479Z,1008.01
2018-06-11T05:32:57.482Z,1008.04
2018-06-11T05:33:57.429Z,1008.03
2018-06-11T05:34:57.501Z,1008.07
2018-06-11T05:35:57.383Z,1008.08
2018-06-11T05:36:57.431Z,1008.05
2018-06-11T05:37:57.369Z,1008.11
2018-06-11T05:38:57.430Z,1008.13
2018-06-11T05:39:57.306Z,1008.21
2018-06-11T05:40:57.352Z,1008.21
2018-06-11T05:41:57.284Z,1008.24
2018-06-11T05:42:57.448Z,1008.26
2018-06-11T05:43:57.221Z,1008.22
2018-06-11T05:44:58.390Z,1008.22
2018-06-11T05:45:57.234Z,1008.26
2018-06-11T05:46:57.171Z,1008.26
2018-06-11T05:47:57.150Z,1008.29
2018-06-11T05:48:57.199Z,1008.31
2018-06-11T05:49:57.063Z,1008.33
2018-06-11T05:50:57.036Z,1008.34
2018-06-11T05:51:57.019Z,1008.38
2018-06-11T05:52:57.006Z,1008.41
2018-06-11T05:53:56.969Z,1008.44
2018-06-11T05:54:56.948Z,1008.41
2018-06-11T05:55:56.929Z,1008.43
2018-06-11T05:56:56.905Z,1008.41
2018-06-11T05:57:56.878Z,1008.44
2018-06-11T05:58:56.854Z,1008.43
2018-06-11T05:59:56.835Z,1008.40
2018-06-11T06:00:56.814Z,1008.46
2018-06-11T06:01:56.793Z,1008.48
2018-06-11T06:02:56.890Z,1008.48
2018-06-11T06:03:56.743Z,1008.48
2018-06-11T06:04:56.784Z,1008.48
2018-06-11T06:05:56.699Z,1008.56
2018-06-11T06:06:56.696Z,1008.56
2018-06-11T06:07:56.654Z,1008.61
2018-06-11T06:08:56.717Z,1008.61
2018-06-11T06:09:56.622Z,1008.67
2018-06-11T06:10:56.618Z,1008.64
2018-06-11T06:11:56.567Z,1008.61
2018-06-11T06:12:56.631Z,1008.62
2018-06-11T06:13:56.509Z,1008.59
2018-06-11T06:14:56.549Z,1008.57
2018-06-11T06:15:56.476Z,1008.54
2018-06-11T06:16:56.566Z,1008.52
2018-06-11T06:17:56.428Z,1008.53
2018-06-11T06:18:56.485Z,1008.55
2018-06-11T06:19:56.395Z,1008.48
2018-06-11T06:20:56.387Z,1008.52
2018-06-11T06:21:56.338Z,1008.55
2018-06-11T06:22:56.400Z,1008.54
2018-06-11T06:23:56.284Z,1008.58
2018-06-11T06:24:56.315Z,1008.62
2018-06-11T06:25:56.239Z,1008.62
2018-06-11T06:26:56.325Z,1008.66
2018-06-11T06:27:56.197Z,1008.66
2018-06-11T06:28:56.240Z,1008.66
2018-06-11T06:29:56.168Z,1008.64
2018-06-11T06:30:58.189Z,1008.72
2018-06-11T06:31:56.101Z,1008.71
2018-06-11T06:32:56.159Z,1008.69
2018-06-11T06:33:56.067Z,1008.70
2018-06-11T06:34:56.080Z,1008.66
2018-06-11T06:35:56.006Z,1008.68
2018-06-11T06:36:56.083Z,1008.65
2018-06-11T06:37:55.963Z,1008.64
2018-06-11T06:38:55.997Z,1008.70
2018-06-11T06:39:55.923Z,1008.70
2018-06-11T06:40:55.904Z,1008.70
2018-06-11T06:41:55.875Z,1008.70
2018-06-11T06:42:55.918Z,1008.73
2018-06-11T06:43:55.829Z,1008.75
2018-06-11T06:44:55.906Z,1008.78
2018-06-11T06:45:55.775Z,1008.72
2018-06-11T06:46:55.824Z,1008.72
2018-06-11T06:47:55.729Z,1008.64
2018-06-11T06:48:55.754Z,1008.68
2018-06-11T06:49:55.712Z,1008.66
2018-06-11T06:50:55.748Z,1008.65
2018-06-11T06:51:55.633Z,1008.65
2018-06-11T06:52:55.652Z,1008.65
2018-06-11T06:53:55.593Z,1008.62
2018-06-11T06:54:55.662Z,1008.61
2018-06-11T06:55:55.551Z,1008.66
2018-06-11T06:56:55.602Z,1008.67
2018-06-11T06:57:55.507Z,1008.65
2018-06-11T06:58:55.488Z,1008.71
2018-06-11T06:59:55.450Z,1008.63
2018-06-11T07:00:56.534Z,1008.63
2018-06-11T07:01:55.401Z,1008.61
2018-06-11T07:02:55.438Z,1008.63
2018-06-11T07:03:55.367Z,1008.58
2018-06-11T07:04:55.442Z,1008.68
2018-06-11T07:05:55.312Z,1008.61
2018-06-11T07:06:55.336Z,1008.64
2018-06-11T07:07:55.267Z,1008.63
2018-06-11T07:08:55.251Z,1008.66
2018-06-11T07:09:55.232Z,1008.62
2018-06-11T07:10:55.269Z,1008.65
2018-06-11T07:11:55.166Z,1008.70
2018-06-11T07:12:55.183Z,1008.66
2018-06-11T07:13:55.130Z,1008.68
2018-06-11T07:14:55.202Z,1008.66
2018-06-11T07:15:55.078Z,1008.61
2018-06-11T07:16:55.122Z,1008.63
2018-06-11T07:18:40.612Z,1008.63
2018-06-11T07:19:40.538Z,1008.60
2018-06-11T07:20:40.525Z,1008.56
2018-06-11T07:21:40.539Z,1008.62
2018-06-11T07:22:40.454Z,1008.61
2018-06-11T07:23:40.528Z,1008.65
2018-06-11T07:24:40.402Z,1008.63
2018-06-11T07:25:40.423Z,1008.65
2018-06-11T07:26:40.352Z,1008.68
2018-06-11T07:27:40.441Z,1008.66
2018-06-11T07:28:40.308Z,1008.62
2018-06-11T07:29:40.339Z,1008.63
2018-06-11T07:30:40.265Z,1008.59
2018-06-11T07:31:40.256Z,1008.58
2018-06-11T07:32:40.220Z,1008.59
2018-06-11T07:33:40.273Z,1008.65
2018-06-11T07:34:40.177Z,1008.62
2018-06-11T07:35:40.194Z,1008.66
2018-06-11T07:36:40.132Z,1008.65
2018-06-11T07:37:40.201Z,1008.71
2018-06-11T07:38:25.748Z,1008.68
2018-06-11T07:39:25.781Z,1008.69
2018-06-11T07:40:25.691Z,1008.69
2018-06-11T07:41:25.682Z,1008.68
2018-06-11T07:42:25.639Z,1008.73
2018-06-11T07:43:25.629Z,1008.72
2018-06-11T07:44:25.581Z,1008.71
2018-06-11T07:45:25.607Z,1008.68
2018-06-11T07:46:25.537Z,1008.69
2018-06-11T07:47:25.615Z,1008.67
2018-06-11T07:48:25.494Z,1008.64
2018-06-11T07:49:25.480Z,1008.58
2018-06-11T07:50:25.536Z,1008.56
2018-06-11T07:51:25.435Z,1008.58
2018-06-11T07:52:25.403Z,1008.57
2018-06-11T07:53:25.380Z,1008.61
2018-06-11T07:54:25.695Z,1008.54
2018-06-11T07:55:25.332Z,1008.54
2018-06-11T07:56:25.321Z,1008.55
2018-06-11T07:57:25.315Z,1008.54
2018-06-11T07:58:25.289Z,1008.56
2018-06-11T07:59:25.239Z,1008.57
2018-06-11T08:00:25.238Z,1008.62
2018-06-11T08:01:25.285Z,1008.65
2018-06-11T08:02:25.276Z,1008.62
2018-06-11T08:03:25.143Z,1008.61
2018-06-11T08:04:25.130Z,1008.62
2018-06-11T08:05:25.175Z,1008.60
2018-06-11T08:06:25.076Z,1008.61
2018-06-11T08:07:25.103Z,1008.58
2018-06-11T08:08:25.044Z,1008.63
2018-06-11T08:09:25.096Z,1008.61
2018-06-11T08:10:24.986Z,1008.63
2018-06-11T08:11:25.001Z,1008.67
2018-06-11T08:12:24.932Z,1008.65
2018-06-11T08:13:25.080Z,1008.66
2018-06-11T08:14:24.910Z,1008.63
2018-06-11T08:15:24.934Z,1008.69
2018-06-11T08:16:24.855Z,1008.67
2018-06-11T08:17:24.896Z,1008.69
2018-06-11T08:18:24.808Z,1008.69
2018-06-11T08:19:24.791Z,1008.69
2018-06-11T08:20:24.760Z,1008.65
2018-06-11T08:22:10.839Z,1008.62
2018-06-11T08:23:10.745Z,1008.61
2018-06-11T08:24:10.809Z,1008.62
2018-06-11T08:25:10.690Z,1008.61
2018-06-11T08:26:10.763Z,1008.56
2018-06-11T08:27:10.632Z,1008.56
2018-06-11T08:30:02.277Z,1008.53
2018-06-11T08:31:02.261Z,1008.50
2018-06-11T08:32:02.157Z,1008.51
2018-06-11T08:33:02.200Z,1008.53
2018-06-11T08:34:02.148Z,1008.56
2018-06-11T08:35:02.215Z,1008.53
2018-06-11T08:36:02.108Z,1008.51
2018-06-11T08:37:13.676Z,1008.51
2018-06-11T08:38:02.051Z,1008.45
2018-06-11T08:39:02.097Z,1008.44
2018-06-11T08:40:01.974Z,1008.42
2018-06-11T08:41:02.022Z,1008.46
2018-06-11T08:42:01.932Z,1008.48
2018-06-11T08:43:01.934Z,1008.44
2018-06-11T08:44:01.926Z,1008.44
2018-06-11T08:45:01.966Z,1008.41
2018-06-11T08:46:47.449Z,1008.39
2018-06-11T08:47:47.273Z,1008.44
2018-06-11T08:48:47.271Z,1008.46
2018-06-11T08:49:47.212Z,1008.44
2018-06-11T08:50:49.378Z,1008.44
2018-06-11T08:51:47.191Z,1008.45
2018-06-11T08:52:51.958Z,1008.48
2018-06-11T08:53:47.107Z,1008.56
2018-06-11T08:54:47.121Z,1008.58
2018-06-11T08:55:47.055Z,1008.54
2018-06-11T08:56:47.068Z,1008.51
2018-06-11T08:57:47.017Z,1008.51
2018-06-11T08:58:48.153Z,1008.45
2018-06-11T09:00:33.021Z,1008.39
2018-06-11T09:01:32.996Z,1008.36
2018-06-11T09:02:32.879Z,1008.40
2018-06-11T09:03:32.889Z,1008.40
2018-06-11T09:04:32.838Z,1008.45
2018-06-11T09:05:38.619Z,1008.41
2018-06-11T09:06:32.799Z,1008.46
2018-06-11T09:07:32.819Z,1008.44
2018-06-11T09:08:32.725Z,1008.46
2018-06-11T09:09:32.730Z,1008.40
2018-06-11T09:10:32.680Z,1008.30
2018-06-11T09:11:33.756Z,1008.37
2018-06-11T09:12:32.698Z,1008.32
2018-06-11T09:13:32.644Z,1008.25
2018-06-11T09:14:32.586Z,1008.25
2018-06-11T09:15:32.673Z,1008.28
2018-06-11T09:16:32.545Z,1008.25
2018-06-11T09:17:32.577Z,1008.33
2018-06-11T09:18:32.511Z,1008.32
2018-06-11T09:19:32.597Z,1008.29
2018-06-11T09:20:32.452Z,1008.27
2018-06-11T09:21:32.492Z,1008.24
2018-06-11T09:22:32.399Z,1008.28
2018-06-11T09:23:32.407Z,1008.23
2018-06-11T09:24:32.360Z,1008.20
2018-06-11T09:25:32.420Z,1008.24
2018-06-11T09:26:32.317Z,1008.24
2018-06-11T09:27:33.353Z,1008.26
2018-06-11T09:28:32.268Z,1008.20
2018-06-11T09:29:32.271Z,1008.21
2018-06-11T09:30:32.219Z,1008.16
2018-06-11T09:31:32.211Z,1008.17
2018-06-11T09:32:32.268Z,1008.16
2018-06-11T09:33:32.145Z,1008.19
2018-06-11T09:34:32.174Z,1008.18
2018-06-11T09:35:32.108Z,1008.26
2018-06-11T09:36:32.207Z,1008.27
2018-06-11T09:37:32.076Z,1008.28
2018-06-11T09:38:32.105Z,1008.30
2018-06-11T09:39:32.013Z,1008.30
2018-06-11T09:40:32.032Z,1008.26
2018-06-11T09:41:31.974Z,1008.26
2018-06-11T09:42:31.948Z,1008.22
2018-06-11T09:44:22.107Z,1008.28
2018-06-11T09:45:22.122Z,1008.35
2018-06-11T09:46:22.037Z,1008.34
2018-06-11T09:47:22.025Z,1008.38
2018-06-11T09:48:21.994Z,1008.39
2018-06-11T09:49:22.362Z,1008.42
2018-06-11T09:50:21.943Z,1008.38
2018-06-11T09:51:21.906Z,1008.38
2018-06-11T09:52:22.099Z,1008.46
2018-06-11T09:53:21.980Z,1008.44
2018-06-11T09:54:21.852Z,1008.45
2018-06-11T09:56:09.458Z,1008.45
2018-06-11T09:57:09.419Z,1008.45
2018-06-11T09:58:09.303Z,1008.48
2018-06-11T09:59:09.324Z,1008.46
2018-06-11T10:00:09.262Z,1008.51
2018-06-11T10:01:10.352Z,1008.47
2018-06-11T10:02:09.209Z,1008.49
2018-06-11T10:03:09.238Z,1008.50
2018-06-11T10:04:09.173Z,1008.44
2018-06-11T10:05:09.252Z,1008.53
2018-06-11T10:06:09.149Z,1008.49
2018-06-11T10:07:09.208Z,1008.41
2018-06-11T10:08:09.077Z,1008.42
2018-06-11T10:09:09.087Z,1008.44
2018-06-11T10:10:09.037Z,1008.43
2018-06-11T10:11:09.082Z,1008.42
2018-06-11T10:12:09.028Z,1008.48
2018-06-11T10:13:54.466Z,1008.50
2018-06-11T10:14:54.476Z,1008.51
2018-06-11T10:15:54.385Z,1008.50
2018-06-11T10:16:54.376Z,1008.52
2018-06-11T10:17:54.333Z,1008.52
2018-06-11T10:18:54.401Z,1008.47
2018-06-11T10:19:54.576Z,1008.44
2018-06-11T10:20:54.277Z,1008.42
2018-06-11T10:21:54.243Z,1008.40
2018-06-11T10:22:54.217Z,1008.36
2018-06-11T10:23:55.246Z,1008.32
2018-06-11T10:24:54.216Z,1008.27
2018-06-11T10:25:54.249Z,1008.26
2018-06-11T10:26:54.162Z,1008.36
2018-06-11T10:27:54.171Z,1008.30
2018-06-11T10:28:54.097Z,1008.31
2018-06-11T10:29:54.172Z,1008.27
2018-06-11T10:30:54.037Z,1008.26
2018-06-11T10:31:54.009Z,1008.30
2018-06-11T10:32:55.025Z,1008.28
2018-06-11T10:33:53.957Z,1008.25
2018-06-11T10:34:54.024Z,1008.27
2018-06-11T10:35:53.914Z,1008.29
2018-06-11T10:36:54.224Z,1008.27
2018-06-11T10:37:53.880Z,1008.33
2018-06-11T10:38:53.862Z,1008.27
2018-06-11T10:39:53.831Z,1008.22
2018-06-11T10:40:53.810Z,1008.22
2018-06-11T10:41:53.782Z,1008.26
2018-06-11T10:42:53.754Z,1008.24
2018-06-11T10:43:55.821Z,1008.25
2018-06-11T10:44:53.716Z,1008.20
2018-06-11T10:45:55.728Z,1008.22
2018-06-11T10:46:53.678Z,1008.19
2018-06-11T10:47:53.689Z,1008.22
2018-06-11T10:48:53.634Z,1008.24
2018-06-11T10:49:53.600Z,1008.16
2018-06-11T10:50:53.581Z,1008.10
2018-06-11T10:51:53.575Z,1008.18
2018-06-11T10:52:53.614Z,1008.13
2018-06-11T10:53:53.516Z,1008.19
2018-06-11T10:54:53.498Z,1008.13
2018-06-11T10:55:53.535Z,1008.16
2018-06-11T10:56:53.449Z,1008.13
2018-06-11T10:57:53.430Z,1008.07
2018-06-11T10:58:53.394Z,1008.10
2018-06-11T10:59:53.386Z,1008.04
2018-06-11T11:00:53.361Z,1008.06
2018-06-11T11:01:53.377Z,1008.09
2018-06-11T11:02:53.311Z,1008.06
2018-06-11T11:03:53.312Z,1008.10
2018-06-11T11:04:53.266Z,1008.09
2018-06-11T11:05:53.239Z,1008.10
2018-06-11T11:06:53.227Z,1008.15
2018-06-11T11:07:53.201Z,1008.06
2018-06-11T11:08:53.195Z,1008.01
2018-06-11T11:09:53.147Z,1008.06
2018-06-11T11:10:53.251Z,1008.03
2018-06-11T11:11:53.110Z,1008.02
2018-06-11T11:12:53.143Z,1007.98
2018-06-11T11:13:53.063Z,1007.95
2018-06-11T11:14:53.068Z,1007.92
2018-06-11T11:15:53.028Z,1007.93
2018-06-11T11:16:53.080Z,1007.91
2018-06-11T11:18:38.867Z,1007.91
2018-06-11T11:19:38.795Z,1007.86
2018-06-11T11:20:38.771Z,1007.90
2018-06-11T11:21:38.765Z,1007.94
2018-06-11T11:22:38.737Z,1007.89
2018-06-11T11:23:39.856Z,1007.95
2018-06-11T11:24:38.735Z,1007.89
2018-06-11T11:25:38.948Z,1007.87
2018-06-11T11:26:38.644Z,1007.81
2018-06-11T11:27:39.731Z,1007.80
2018-06-11T11:28:38.593Z,1007.81
2018-06-11T11:29:38.578Z,1007.82
2018-06-11T11:30:43.339Z,1007.85
2018-06-11T11:31:38.540Z,1007.85
2018-06-11T11:32:38.497Z,1007.88
2018-06-11T11:33:38.561Z,1007.85
2018-06-11T11:34:38.456Z,1007.87
2018-06-11T11:35:38.432Z,1007.81
2018-06-11T11:36:38.404Z,1007.79
2018-06-11T11:37:41.350Z,1007.78
2018-06-11T11:38:38.386Z,1007.79
2018-06-11T11:39:38.368Z,1007.77
2018-06-11T11:40:38.389Z,1007.79
2018-06-11T11:41:38.336Z,1007.78
2018-06-11T11:42:38.302Z,1007.73
2018-06-11T11:43:38.261Z,1007.71
2018-06-11T11:44:38.242Z,1007.66
2018-06-11T11:45:38.229Z,1007.67
2018-06-11T11:47:26.823Z,1007.58
2018-06-11T11:48:26.804Z,1007.59
2018-06-11T11:49:26.701Z,1007.64
2018-06-11T11:50:26.740Z,1007.62
2018-06-11T11:51:26.660Z,1007.59
2018-06-11T11:52:28.733Z,1007.58
2018-06-11T11:53:26.625Z,1007.56
2018-06-11T11:54:26.651Z,1007.56
2018-06-11T11:55:26.550Z,1007.53
2018-06-11T11:56:27.609Z,1007.55
2018-06-11T11:57:26.559Z,1007.49
2018-06-11T11:58:26.500Z,1007.48
2018-06-11T12:00:12.581Z,1007.36
2018-06-11T12:01:12.550Z,1007.36
2018-06-11T12:03:06.137Z,1007.40
2018-06-11T12:04:06.115Z,1007.37
2018-06-11T12:05:06.051Z,1007.33
2018-06-11T12:06:06.075Z,1007.31
2018-06-11T12:07:05.980Z,1007.29
2018-06-11T12:08:05.924Z,1007.34
2018-06-11T12:09:05.974Z,1007.25
2018-06-11T12:10:05.915Z,1007.19
2018-06-11T12:11:51.757Z,1007.23
2018-06-11T12:12:51.699Z,1007.17
2018-06-11T12:14:45.238Z,1007.20
2018-06-11T12:15:45.236Z,1007.14
2018-06-11T12:16:45.152Z,1007.20
2018-06-11T12:17:45.177Z,1007.22
2018-06-11T12:18:45.108Z,1007.14
2018-06-11T12:19:45.135Z,1007.19